Time;durP1;ratioP1;P1;durP2;ratioP2;P2;SDS_P1;SDS_P2;PMS_P1;PMS_P2;Temp;Humidity;BMP_temperature;BMP_pressure;BME280_temperature;BME280_humidity;BME280_pressure;Samples;Min_cycle;Max_cycle;Signal;HPM_P1;HPM_P2
2022/05/24 00:02:43;;;;;;;6.00;1.87;;;;;;;16.15;94.02;99156.63;5981403;28;20094;-67
2022/05/24 00:05:40;;;;;;;4.28;1.80;;;;;;;16.22;94.06;99158.22;5979420;28;20024;-68
2022/05/24 00:08:35;;;;;;;2.50;1.30;;;;;;;16.30;94.29;99174.00;5981542;28;20431;-68
2022/05/24 00:11:31;;;;;;;3.13;1.43;;;;;;;16.24;93.80;99177.53;5978472;28;20031;-67
2022/05/24 00:17:40;;;;;;;2.92;1.60;;;;;;;16.25;93.76;99187.19;5979451;28;20430;-67
2022/05/24 00:20:45;;;;;;;3.55;1.60;;;;;;;16.32;93.51;99192.50;5977117;28;20031;-68
2022/05/24 00:23:40;;;;;;;5.55;1.73;;;;;;;16.31;93.00;99194.34;5983629;28;20039;-68
2022/05/24 00:26:35;;;;;;;6.80;1.87;;;;;;;16.30;93.72;99208.78;5994058;28;20093;-69
2022/05/24 00:29:31;;;;;;;3.63;1.80;;;;;;;16.04;95.11;99215.16;5979327;28;20039;-68
2022/05/24 00:32:26;;;;;;;4.20;1.77;;;;;;;15.99;96.58;99215.00;5978812;28;20097;-68
2022/05/24 00:35:22;;;;;;;4.25;1.90;;;;;;;15.93;97.67;99212.34;5978957;28;20279;-67
2022/05/24 00:38:28;;;;;;;4.95;1.98;;;;;;;15.92;97.54;99210.75;5983116;28;20047;-68
2022/05/24 00:41:26;;;;;;;;;;;;;;;15.90;98.30;99234.19;5981926;28;20039;-67
2022/05/24 00:44:27;;;;;;;3.95;2.30;;;;;;;15.86;99.08;99227.63;5980294;28;19930;-68
2022/05/24 00:47:36;;;;;;;4.35;2.35;;;;;;;15.84;99.50;99233.22;5983734;28;20041;-67
2022/05/24 00:50:37;;;;;;;4.47;2.60;;;;;;;15.79;99.40;99243.72;5977282;29;20036;-67
2022/05/24 00:53:43;;;;;;;3.35;1.73;;;;;;;15.66;99.34;99275.03;5989081;28;20105;-65
2022/05/24 00:57:17;;;;;;;3.72;2.08;;;;;;;15.42;98.91;99272.06;5998010;28;20035;-68
2022/05/24 01:00:16;;;;;;;6.15;2.78;;;;;;;15.29;99.00;99271.28;5980361;28;20034;-67
2022/05/24 01:03:12;;;;;;;4.70;3.00;;;;;;;15.16;98.53;99285.53;5981167;28;20082;-67
2022/05/24 01:06:07;;;;;;;7.80;4.18;;;;;;;15.06;98.60;99287.78;5978767;28;20125;-65
2022/05/24 01:09:06;;;;;;;8.57;4.77;;;;;;;14.96;98.92;99295.44;5985786;28;20491;-67
2022/05/24 01:12:09;;;;;;;8.65;5.28;;;;;;;14.81;99.74;99308.19;5981082;28;20101;-67
2022/05/24 01:15:07;;;;;;;9.88;5.80;;;;;;;14.80;99.78;99325.22;5995294;28;20038;-66
2022/05/24 01:18:03;;;;;;;10.40;6.40;;;;;;;14.68;99.23;99325.03;5985908;28;20127;-65
2022/05/24 01:21:05;;;;;;;11.57;7.28;;;;;;;14.67;98.95;99335.91;5980820;28;20046;-67
2022/05/24 01:24:08;;;;;;;15.48;7.57;;;;;;;14.60;98.95;99351.09;5986760;28;20038;-66
2022/05/24 01:27:04;;;;;;;13.68;7.82;;;;;;;14.43;97.90;99342.66;5997527;28;20087;-65
2022/05/24 01:29:59;;;;;;;15.60;8.27;;;;;;;14.38;97.24;99352.34;5983887;28;20069;-65
2022/05/24 01:36:12;;;;;;;13.18;8.25;;;;;;;14.35;96.53;99368.75;5982672;28;20035;-64
2022/05/24 01:39:10;;;;;;;12.35;7.45;;;;;;;14.36;96.34;99373.03;5982431;28;20043;-65
2022/05/24 01:42:05;;;;;;;14.93;7.25;;;;;;;14.34;96.27;99377.75;5983422;28;20143;-65
2022/05/24 01:45:03;;;;;;;12.82;7.55;;;;;;;14.35;96.48;99382.88;6005098;28;20035;-66
2022/05/24 01:48:03;;;;;;;13.40;7.22;;;;;;;14.32;95.30;99389.44;5981940;28;20023;-65
2022/05/24 01:51:00;;;;;;;12.00;6.88;;;;;;;14.38;95.05;99397.69;5984176;28;20038;-65
2022/05/24 01:53:57;;;;;;;11.70;7.03;;;;;;;14.37;94.74;99396.03;5997025;28;20134;-65
2022/05/24 01:57:28;;;;;;;12.52;7.38;;;;;;;14.34;94.65;99407.91;5981848;28;20073;-65
2022/05/24 02:00:23;;;;;;;16.38;7.82;;;;;;;14.28;94.20;99393.50;5959429;28;20130;-65
2022/05/24 02:03:19;;;;;;;11.93;6.57;;;;;;;14.35;93.57;99401.53;5982126;28;20046;-65
2022/05/24 02:06:24;;;;;;;13.65;6.65;;;;;;;14.24;94.02;99412.78;5991912;28;20542;-66
2022/05/24 02:09:20;;;;;;;11.10;6.47;;;;;;;14.23;94.22;99408.47;5981903;28;20043;-65
2022/05/24 02:12:22;;;;;;;12.67;6.17;;;;;;;14.25;93.85;99419.75;5989502;28;20093;-66
2022/05/24 02:15:21;;;;;;;12.30;6.03;;;;;;;14.23;93.34;99432.47;5999274;28;20035;-65
2022/05/24 02:18:18;;;;;;;12.35;6.20;;;;;;;14.22;92.57;99431.66;5980517;29;20552;-66
2022/05/24 02:21:14;;;;;;;11.57;5.85;;;;;;;14.24;92.26;99437.59;5979742;28;20039;-65
2022/05/24 02:24:19;;;;;;;9.50;5.50;;;;;;;14.22;92.41;99436.16;5981555;28;20074;-65
2022/05/24 02:27:14;;;;;;;11.50;5.50;;;;;;;14.16;92.48;99432.44;5981475;28;20039;-65
2022/05/24 02:30:22;;;;;;;11.23;5.40;;;;;;;14.22;91.37;99439.66;5983715;28;20494;-65
2022/05/24 02:33:18;;;;;;;9.93;4.18;;;;;;;14.20;91.31;99438.22;5990789;28;20063;-66
2022/05/24 02:36:14;;;;;;;9.23;4.43;;;;;;;14.19;89.70;99432.03;5992787;28;20479;-66
2022/05/24 02:39:10;;;;;;;6.13;3.95;;;;;;;14.17;90.23;99438.59;5982663;28;20039;-66
2022/05/24 02:42:05;;;;;;;8.37;3.70;;;;;;;14.15;88.89;99433.47;5981379;28;20063;-66
2022/05/24 02:45:00;;;;;;;7.60;3.20;;;;;;;14.22;88.12;99458.31;5981844;28;20430;-66
2022/05/24 02:47:56;;;;;;;6.00;3.40;;;;;;;14.15;89.14;99454.81;5989946;28;20439;-66
2022/05/24 02:50:51;;;;;;;5.72;3.45;;;;;;;14.20;88.57;99460.38;5981099;28;20039;-67
2022/05/24 02:53:46;;;;;;;6.03;3.37;;;;;;;14.15;88.07;99462.81;5980802;28;20027;-66
2022/05/24 02:56:44;;;;;;;6.80;2.80;;;;;;;14.15;87.35;99468.16;5980793;28;20040;-66
2022/05/24 02:59:39;;;;;;;7.63;2.63;;;;;;;14.02;87.37;99478.72;5982462;28;20391;-66
2022/05/24 03:02:34;;;;;;;5.37;2.70;;;;;;;14.06;86.98;99484.50;5993757;28;20047;-66
2022/05/24 03:05:30;;;;;;;3.97;2.27;;;;;;;14.01;86.74;99479.78;5987042;28;20113;-66
2022/05/24 03:14:54;;;;;;;4.78;2.30;;;;;;;13.90;85.88;99496.31;5982414;28;20121;-66
2022/05/24 03:17:49;;;;;;;4.88;2.42;;;;;;;13.93;84.86;99506.59;5982682;28;20392;-66
2022/05/24 03:20:45;;;;;;;3.90;2.30;;;;;;;13.84;84.89;99496.28;5986199;28;20031;-67
2022/05/24 03:23:41;;;;;;;5.63;2.05;;;;;;;13.76;85.53;99499.94;5980127;28;20118;-66
2022/05/24 03:26:37;;;;;;;4.97;2.22;;;;;;;13.62;84.86;99493.69;5981080;28;20477;-66
2022/05/24 03:29:32;;;;;;;4.10;2.10;;;;;;;13.56;85.30;99499.00;5992444;28;20047;-66
2022/05/24 03:32:28;;;;;;;4.70;2.20;;;;;;;13.44;85.55;99500.53;5979669;28;20047;-65
2022/05/24 03:35:24;;;;;;;5.70;2.45;;;;;;;13.45;86.39;99503.00;5984435;28;20493;-66
2022/05/24 03:38:19;;;;;;;3.97;2.08;;;;;;;13.47;86.37;99510.81;5979419;28;20035;-65
2022/05/24 03:41:16;;;;;;;4.35;2.40;;;;;;;13.47;86.00;99521.47;5982817;28;20090;-66
2022/05/24 03:44:11;;;;;;;6.87;2.47;;;;;;;13.48;86.02;99523.13;5990702;28;20031;-65
2022/05/24 03:47:07;;;;;;;6.70;2.55;;;;;;;13.52;85.71;99509.22;5980892;28;20035;-66
2022/05/24 03:50:04;;;;;;;4.33;2.27;;;;;;;13.56;85.25;99517.66;5983143;28;20111;-66
2022/05/24 03:52:59;;;;;;;4.93;1.95;;;;;;;13.60;84.36;99510.88;5980352;28;20360;-66
2022/05/24 03:55:55;;;;;;;3.90;2.27;;;;;;;13.58;84.58;99515.59;5976928;28;20035;-67
2022/05/24 03:58:50;;;;;;;5.20;2.33;;;;;;;13.64;85.16;99512.16;5984866;28;20041;-66
2022/05/24 04:01:45;;;;;;;4.85;2.42;;;;;;;13.73;85.24;99532.28;5978902;28;20035;-66
2022/05/24 04:04:41;;;;;;;4.47;2.20;;;;;;;13.75;85.43;99524.13;5983149;28;20042;-66
2022/05/24 04:07:36;;;;;;;3.38;1.90;;;;;;;13.78;85.57;99534.38;5979363;28;20023;-66
2022/05/24 04:10:32;;;;;;;6.72;2.63;;;;;;;13.73;85.20;99535.78;5980072;28;20042;-66
2022/05/24 04:13:28;;;;;;;4.35;2.45;;;;;;;13.73;85.67;99532.28;5979368;28;20128;-66
2022/05/24 04:16:23;;;;;;;8.77;2.90;;;;;;;13.69;85.43;99541.69;5979618;28;20040;-66
2022/05/24 04:19:18;;;;;;;8.20;2.60;;;;;;;13.82;85.87;99540.94;5979560;28;20031;-66
2022/05/24 04:22:13;;;;;;;5.93;2.67;;;;;;;13.95;85.65;99541.03;5984223;28;20043;-66
2022/05/24 04:25:10;;;;;;;6.03;2.73;;;;;;;13.96;85.19;99545.34;5979933;28;20573;-66
2022/05/24 04:28:05;;;;;;;7.20;3.15;;;;;;;14.01;84.80;99550.91;5979182;28;20310;-66
2022/05/24 04:31:00;;;;;;;7.15;2.65;;;;;;;13.95;85.09;99544.53;5978554;28;20035;-67
2022/05/24 04:33:56;;;;;;;4.70;2.93;;;;;;;14.21;85.31;99549.97;5984025;28;20035;-66
2022/05/24 04:36:51;;;;;;;6.63;3.20;;;;;;;14.31;84.36;99541.63;5982980;28;20041;-66
2022/05/24 04:39:46;;;;;;;4.93;2.90;;;;;;;14.42;83.93;99545.59;5988133;28;20023;-66
2022/05/24 04:42:41;;;;;;;6.90;3.17;;;;;;;14.35;84.69;99547.44;5978273;28;20133;-66
2022/05/24 04:45:37;;;;;;;5.67;3.07;;;;;;;14.35;84.39;99547.44;5979202;28;20035;-66
2022/05/24 04:48:32;;;;;;;6.13;3.60;;;;;;;14.32;84.65;99549.47;5979105;28;20312;-66
2022/05/24 04:51:27;;;;;;;6.00;3.13;;;;;;;14.38;84.00;99553.16;5982965;28;20286;-66
2022/05/24 04:54:23;;;;;;;6.53;3.53;;;;;;;14.39;83.68;99551.34;5993344;28;20295;-66
2022/05/24 04:57:19;;;;;;;6.20;3.30;;;;;;;14.49;83.44;99557.13;5987361;28;20447;-66
2022/05/24 05:00:16;;;;;;;8.73;4.07;;;;;;;14.37;83.79;99545.38;5982667;28;20031;-67
2022/05/24 05:03:14;;;;;;;7.45;3.65;;;;;;;14.63;83.69;99556.13;5983212;28;20062;-66
2022/05/24 05:06:10;;;;;;;6.18;3.55;;;;;;;14.56;83.44;99558.81;5983191;28;20090;-66
2022/05/24 05:09:06;;;;;;;6.22;3.22;;;;;;;14.67;82.52;99552.06;5987906;28;20043;-66
2022/05/24 05:12:03;;;;;;;5.77;3.40;;;;;;;14.80;82.41;99557.44;5982597;28;20078;-66
2022/05/24 05:14:58;;;;;;;7.68;3.22;;;;;;;14.70;82.12;99562.34;5983197;28;20482;-66
2022/05/24 05:18:03;;;;;;;6.10;3.50;;;;;;;14.83;82.17;99557.88;5983169;28;20046;-66
2022/05/24 05:20:59;;;;;;;7.22;3.97;;;;;;;14.95;81.54;99549.25;5987508;28;20278;-67
2022/05/24 05:23:54;;;;;;;5.70;3.25;;;;;;;15.13;81.57;99563.66;5986899;28;20027;-66
2022/05/24 05:26:50;;;;;;;6.55;3.20;;;;;;;15.10;80.76;99552.56;5992296;28;20097;-67
2022/05/24 05:32:59;;;;;;;6.10;3.35;;;;;;;15.02;80.96;99569.59;5980987;28;20267;-67
2022/05/24 05:35:55;;;;;;;6.93;3.27;;;;;;;14.97;80.72;99566.72;5982880;28;20031;-66
2022/05/24 05:38:50;;;;;;;7.47;3.42;;;;;;;14.90;82.07;99571.22;5982402;28;20039;-66
2022/05/24 05:41:46;;;;;;;6.82;3.47;;;;;;;14.82;81.71;99566.88;5984813;28;20031;-66
2022/05/24 05:44:41;;;;;;;7.47;4.03;;;;;;;14.77;81.75;99579.19;5991453;28;20365;-67
2022/05/24 05:47:37;;;;;;;5.47;3.23;;;;;;;14.76;82.55;99599.72;5982531;28;20039;-67
2022/05/24 05:50:32;;;;;;;4.82;3.42;;;;;;;14.65;82.83;99602.13;5981994;28;20035;-66
2022/05/24 05:53:27;;;;;;;6.63;3.60;;;;;;;14.83;82.32;99615.75;5986693;28;20065;-67
2022/05/24 05:56:24;;;;;;;6.57;3.73;;;;;;;14.79;82.53;99610.00;5989941;28;20074;-66
2022/05/24 05:59:19;;;;;;;6.78;3.67;;;;;;;14.96;82.72;99615.78;5982265;28;20047;-66
2022/05/24 06:02:15;;;;;;;7.30;3.63;;;;;;;15.29;82.33;99619.38;5985179;28;20039;-67
2022/05/24 06:05:10;;;;;;;8.43;4.30;;;;;;;15.44;79.66;99620.00;5984877;28;20546;-66
2022/05/24 06:08:08;;;;;;;6.97;3.83;;;;;;;15.20;79.76;99617.91;5989167;28;20031;-66
2022/05/24 06:11:04;;;;;;;8.02;4.30;;;;;;;15.51;80.50;99627.22;5981370;28;20076;-66
2022/05/24 06:13:59;;;;;;;7.90;4.32;;;;;;;15.90;79.13;99630.72;5982968;28;20409;-67
2022/05/24 06:16:54;;;;;;;6.60;4.00;;;;;;;16.22;77.91;99630.91;5990613;28;20090;-66
2022/05/24 06:19:50;;;;;;;6.43;4.20;;;;;;;16.09;77.56;99621.03;5981916;28;20110;-67
2022/05/24 06:22:45;;;;;;;7.13;4.47;;;;;;;16.56;75.15;99623.41;5986437;28;20286;-67
2022/05/24 06:25:42;;;;;;;7.40;4.55;;;;;;;16.30;76.85;99617.28;5981780;28;20027;-66
2022/05/24 06:28:38;;;;;;;7.32;4.70;;;;;;;16.08;77.63;99635.44;5985625;28;20051;-66
2022/05/24 06:31:33;;;;;;;11.73;5.43;;;;;;;16.20;76.20;99644.47;5984534;28;20035;-65
2022/05/24 06:34:32;;;;;;;8.37;5.00;;;;;;;16.02;77.63;99649.63;5985204;28;20027;-66
2022/05/24 06:37:27;;;;;;;10.05;6.03;;;;;;;15.57;78.79;99650.47;5981241;28;20102;-66
2022/05/24 06:40:22;;;;;;;11.27;6.33;;;;;;;15.60;79.33;99650.06;5980742;28;20042;-66
2022/05/24 06:43:18;;;;;;;10.40;5.90;;;;;;;16.45;77.00;99640.09;5982023;28;20290;-66
2022/05/24 06:46:13;;;;;;;11.70;5.82;;;;;;;16.66;76.07;99652.41;5979814;28;20380;-66
2022/05/24 06:49:10;;;;;;;11.30;5.53;;;;;;;16.48;76.08;99647.72;5992313;28;20046;-66
2022/05/24 06:52:05;;;;;;;12.55;6.90;;;;;;;16.26;76.03;99643.63;5981213;28;20028;-66
2022/05/24 06:55:00;;;;;;;12.43;7.18;;;;;;;16.51;75.67;99644.63;5980916;28;20030;-67
2022/05/24 06:57:56;;;;;;;11.23;6.57;;;;;;;16.51;75.77;99639.25;5989215;28;20116;-67
2022/05/24 07:04:05;;;;;;;12.48;6.15;;;;;;;17.07;73.79;99650.19;5979484;29;20440;-66
2022/05/24 07:07:00;;;;;;;9.85;5.40;;;;;;;17.25;73.19;99646.78;5980488;28;20043;-67
2022/05/24 07:09:56;;;;;;;10.20;5.70;;;;;;;17.14;72.43;99660.88;5979800;28;20058;-66
2022/05/24 07:12:59;;;;;;;10.60;5.10;;;;;;;17.23;72.59;99663.06;5979047;28;20545;-66
2022/05/24 07:15:54;;;;;;;9.38;5.68;;;;;;;16.95;73.06;99656.44;5980343;28;20027;-66
2022/05/24 07:18:49;;;;;;;9.33;4.80;;;;;;;17.16;73.19;99664.97;5980267;28;20110;-67
2022/05/24 07:21:45;;;;;;;7.87;5.10;;;;;;;17.14;73.16;99669.75;5980111;28;20110;-66
2022/05/24 07:24:41;;;;;;;9.63;5.05;;;;;;;17.42;72.93;99668.56;5980353;28;20294;-67
2022/05/24 07:27:36;;;;;;;8.80;5.05;;;;;;;17.71;71.36;99667.97;5980145;28;20043;-67
2022/05/24 07:30:32;;;;;;;11.73;5.80;;;;;;;17.87;70.35;99671.97;5979613;28;20039;-66
2022/05/24 07:33:28;;;;;;;7.43;5.07;;;;;;;17.77;71.81;99684.00;5979584;28;20094;-67
2022/05/24 07:36:23;;;;;;;8.80;4.90;;;;;;;17.71;71.33;99674.16;5979347;28;20487;-67
2022/05/24 07:39:18;;;;;;;6.33;4.33;;;;;;;17.79;70.12;99681.94;5979383;28;20039;-66
2022/05/24 07:48:42;;;;;;;8.50;4.53;;;;;;;17.03;73.87;99686.47;5979544;29;20082;-67
2022/05/24 07:51:38;;;;;;;9.05;4.20;;;;;;;17.07;73.63;99686.84;5978400;28;20031;-67
2022/05/24 07:54:33;;;;;;;7.67;3.70;;;;;;;17.04;74.11;99687.31;5978953;28;20030;-66
2022/05/24 07:57:28;;;;;;;8.35;4.75;;;;;;;16.96;73.93;99685.66;5979481;28;20282;-66
2022/05/24 08:00:24;;;;;;;11.17;5.20;;;;;;;16.63;74.90;99693.00;5981157;28;20038;-66
2022/05/24 08:03:19;;;;;;;7.20;4.45;;;;;;;16.70;74.77;99690.31;5978548;28;20053;-66
2022/05/24 08:06:15;;;;;;;8.60;4.50;;;;;;;16.94;74.27;99692.28;5978787;28;20506;-66
2022/05/24 08:09:10;;;;;;;7.40;4.72;;;;;;;16.97;74.06;99698.03;5977365;28;20051;-66
2022/05/24 08:12:06;;;;;;;9.07;4.80;;;;;;;17.29;73.63;99693.56;5978054;28;20031;-67
2022/05/24 08:15:02;;;;;;;9.77;4.95;;;;;;;17.42;73.16;99698.84;5980222;28;20071;-67
2022/05/24 08:17:57;;;;;;;7.88;4.55;;;;;;;17.54;72.96;99694.47;5979069;28;20086;-66
2022/05/24 08:20:53;;;;;;;9.37;5.17;;;;;;;17.06;74.00;99696.78;5978638;28;20047;-66
2022/05/24 08:23:49;;;;;;;7.70;4.88;;;;;;;17.01;74.90;99698.44;5978757;28;20154;-66
2022/05/24 08:26:44;;;;;;;10.07;5.67;;;;;;;16.96;74.89;99700.94;5978921;28;20046;-66
2022/05/24 08:29:40;;;;;;;9.17;5.27;;;;;;;17.03;74.51;99702.56;5986932;28;20039;-66
2022/05/24 08:32:36;;;;;;;9.02;5.80;;;;;;;16.87;74.10;99699.53;5976884;28;20096;-66
2022/05/24 08:35:33;;;;;;;9.82;5.30;;;;;;;16.80;75.49;99701.38;5979124;28;20031;-66
2022/05/24 08:38:28;;;;;;;8.30;5.15;;;;;;;16.97;76.69;99686.50;5978637;28;20035;-66
2022/05/24 08:41:35;;;;;;;8.65;5.13;;;;;;;17.07;74.79;99697.56;5978433;28;20035;-66
2022/05/24 08:51:21;;;;;;;6.15;2.90;;;;;;;15.44;79.09;99774.97;5986512;28;20441;-70
2022/05/24 08:54:20;;;;;;;6.78;3.45;;;;;;;13.45;87.48;99773.84;5977999;28;20034;-68
2022/05/24 08:57:26;;;;;;;7.13;3.33;;;;;;;12.73;91.82;99792.31;5994786;28;20113;-67
2022/05/24 09:00:25;;;;;;;7.63;3.83;;;;;;;12.60;93.72;99800.09;5976935;29;20399;-67
2022/05/24 09:03:24;;;;;;;8.88;3.85;;;;;;;12.37;95.13;99804.63;5992738;28;20047;-67
2022/05/24 09:06:34;;;;;;;11.15;4.35;;;;;;;12.47;95.96;99821.19;5977213;28;20039;-67
2022/05/24 09:09:51;;;;;;;8.90;4.20;;;;;;;12.42;96.37;99824.34;5977972;28;20533;-68
2022/05/24 09:13:24;;;;;;;8.25;4.35;;;;;;;12.57;97.10;99827.06;5980823;28;20097;-68
2022/05/24 09:16:31;;;;;;;10.60;5.45;;;;;;;12.69;98.18;99830.91;5978579;28;20031;-67
2022/05/24 09:19:33;;;;;;;9.93;5.07;;;;;;;12.73;98.21;99816.25;5977647;28;20066;-68
2022/05/24 09:22:31;;;;;;;9.20;5.43;;;;;;;12.83;98.51;99829.28;5976753;28;20031;-67
2022/05/24 09:25:27;;;;;;;10.60;5.68;;;;;;;12.81;98.11;99840.13;5981918;28;20047;-67
2022/05/24 09:28:42;;;;;;;11.50;5.93;;;;;;;13.06;98.82;99843.34;5975736;28;20057;-68
2022/05/24 09:31:41;;;;;;;17.27;6.68;;;;;;;13.19;99.08;99842.72;5977926;28;20138;-68
2022/05/24 09:34:38;;;;;;;14.20;6.72;;;;;;;13.32;99.07;99843.75;5978449;28;20383;-69
2022/05/24 09:37:33;;;;;;;9.18;5.38;;;;;;;13.47;98.80;99835.75;5982588;28;20035;-67
2022/05/24 09:40:50;;;;;;;10.45;5.78;;;;;;;13.61;98.38;99830.41;5989855;28;20078;-66
2022/05/24 09:44:00;;;;;;;8.68;4.72;;;;;;;13.53;98.21;99835.81;5981773;28;20058;-67
2022/05/24 09:46:55;;;;;;;8.07;4.47;;;;;;;13.55;97.82;99817.00;5981450;28;20410;-67
2022/05/24 09:49:51;;;;;;;7.63;4.20;;;;;;;13.62;97.37;99808.06;5982165;28;20035;-67
2022/05/24 09:53:02;;;;;;;6.10;3.80;;;;;;;14.04;97.61;99833.09;5981805;28;20031;-65
2022/05/24 09:56:01;;;;;;;7.30;3.70;;;;;;;14.60;97.43;99834.88;5974292;29;20077;-67
2022/05/24 09:59:03;;;;;;;6.38;3.83;;;;;;;15.03;95.44;99845.47;5981262;28;20427;-66
2022/05/24 10:01:59;;;;;;;6.47;3.10;;;;;;;15.14;92.93;99847.56;5981783;28;20039;-66
2022/05/24 10:04:55;;;;;;;4.50;2.58;;;;;;;15.43;90.69;99850.81;5982292;28;20063;-67
2022/05/24 10:08:10;;;;;;;3.65;2.22;;;;;;;15.34;87.69;99870.69;5982366;28;20043;-66
2022/05/24 10:11:13;;;;;;;3.88;1.98;;;;;;;15.55;86.07;99876.97;5980018;29;20447;-65
2022/05/24 10:14:27;;;;;;;3.08;1.63;;;;;;;15.55;83.07;99868.97;5980749;28;20042;-66
2022/05/24 10:17:43;;;;;;;3.63;1.55;;;;;;;15.40;82.07;99864.56;5980451;29;20035;-66
2022/05/24 10:21:11;;;;;;;2.55;1.63;;;;;;;16.00;81.71;99876.34;5981374;28;20447;-66
2022/05/24 10:24:46;;;;;;;2.40;1.33;;;;;;;16.38;78.73;99896.19;5974739;28;20095;-66
2022/05/24 10:27:57;;;;;;;7.85;1.83;;;;;;;15.96;81.22;99893.81;5982135;28;20063;-66
2022/05/24 10:31:30;;;;;;;2.63;1.38;;;;;;;16.29;77.32;99894.72;5980823;28;20086;-66
2022/05/24 10:38:33;;;;;;;1.95;1.30;;;;;;;16.42;76.06;99902.78;5980834;29;20035;-66
2022/05/24 10:41:50;;;;;;;2.88;1.40;;;;;;;16.58;77.03;99890.88;5979566;29;20126;-66
2022/05/24 10:44:49;;;;;;;3.00;1.67;;;;;;;17.11;74.79;99899.75;5981407;28;20034;-66
2022/05/24 10:47:50;;;;;;;2.97;1.65;;;;;;;17.19;74.83;99920.97;5978660;28;20423;-67
2022/05/24 10:50:55;;;;;;;4.35;1.48;;;;;;;17.10;73.09;99924.88;5980999;28;20043;-66
2022/05/24 10:53:54;;;;;;;5.25;2.60;;;;;;;16.22;73.35;99926.00;5987465;28;20034;-67
2022/05/24 10:57:09;;;;;;;5.35;2.40;;;;;;;15.98;75.00;99931.91;5982339;28;20483;-67
2022/05/24 11:00:05;;;;;;;3.72;2.47;;;;;;;15.89;73.79;99936.59;5982348;28;20207;-67
2022/05/24 11:03:18;;;;;;;6.32;2.55;;;;;;;15.78;76.14;99930.97;5981066;28;20487;-67
2022/05/24 11:06:54;;;;;;;4.93;2.55;;;;;;;16.25;72.65;99922.91;5986080;28;20039;-66
2022/05/24 11:09:56;;;;;;;6.18;2.47;;;;;;;17.04;73.28;99928.41;5932741;28;20192;-67
2022/05/24 11:12:56;;;;;;;4.53;2.30;;;;;;;16.80;71.36;99931.69;5979178;29;20502;-67
2022/05/24 11:15:52;;;;;;;;;;;;;;;17.13;70.34;99937.88;5979908;29;20027;-67
2022/05/24 11:18:47;;;;;;;3.40;1.90;;;;;;;17.44;69.29;99942.56;5980686;28;19950;-67
2022/05/24 11:22:04;;;;;;;4.97;2.30;;;;;;;17.73;70.02;99959.03;5978825;29;20035;-67
2022/05/24 11:25:13;;;;;;;6.63;2.08;;;;;;;17.89;69.33;99959.59;5980446;28;20031;-66
2022/05/24 11:28:23;;;;;;;8.32;2.72;;;;;;;17.60;69.17;99956.41;5980520;28;20038;-67
2022/05/24 11:31:27;;;;;;;4.45;2.60;;;;;;;17.81;68.94;99957.97;5978427;28;20039;-66
2022/05/24 11:34:32;;;;;;;4.93;2.20;;;;;;;18.77;67.76;99954.22;5980264;28;20074;-67
2022/05/24 11:37:33;;;;;;;5.00;2.30;;;;;;;19.11;63.45;99968.19;5978232;28;20114;-67
2022/05/24 11:40:32;;;;;;;4.75;2.58;;;;;;;18.07;64.74;99983.91;5978565;29;20028;-67
2022/05/24 11:43:36;;;;;;;4.32;2.42;;;;;;;16.96;68.56;99974.97;5979964;28;20070;-66
2022/05/24 11:46:34;;;;;;;7.10;2.88;;;;;;;16.53;69.22;99979.00;5979830;28;20031;-67
2022/05/24 11:49:29;;;;;;;4.65;2.30;;;;;;;17.07;71.89;99986.91;5979492;28;20044;-67
2022/05/24 11:53:02;;;;;;;4.27;2.60;;;;;;;17.87;69.36;99980.44;5985379;28;20034;-66
2022/05/24 11:55:57;;;;;;;5.07;1.90;;;;;;;18.06;65.45;99980.38;5978613;28;20035;-67
2022/05/24 11:58:56;;;;;;;3.58;1.80;;;;;;;18.19;60.84;99992.91;5979631;28;20058;-66
2022/05/24 12:01:52;;;;;;;3.38;1.63;;;;;;;18.45;59.78;99990.13;5979075;28;20035;-66
2022/05/24 12:08:30;;;;;;;2.15;1.20;;;;;;;18.68;57.66;99985.06;5979694;28;20031;-66
2022/05/24 12:11:33;;;;;;;3.28;1.63;;;;;;;17.85;60.72;100010.19;5979793;28;20472;-66
2022/05/24 12:14:38;;;;;;;4.50;1.35;;;;;;;17.62;62.79;100007.94;5979452;28;20037;-66
2022/05/24 12:17:33;;;;;;;4.60;1.60;;;;;;;18.51;59.61;100009.97;5978571;29;20042;-67
2022/05/24 12:20:35;;;;;;;2.53;1.27;;;;;;;19.28;58.11;100015.00;5978935;28;20039;-66
2022/05/24 12:23:30;;;;;;;2.00;1.10;;;;;;;18.66;56.33;100016.69;5979171;28;20270;-67
2022/05/24 12:27:03;;;;;;;2.30;1.10;;;;;;;19.02;56.69;100016.06;5988946;28;20438;-66
2022/05/24 12:30:29;;;;;;;2.13;1.10;;;;;;;18.61;56.97;100023.75;5979332;28;20409;-66
2022/05/24 12:33:25;;;;;;;1.58;1.00;;;;;;;18.32;56.19;100022.38;5979205;28;20114;-66
2022/05/24 12:36:25;;;;;;;1.87;0.90;;;;;;;18.12;58.37;100027.84;5979512;28;20387;-66
2022/05/24 12:39:25;;;;;;;2.67;0.85;;;;;;;18.08;59.67;100015.06;5994257;28;20035;-67
2022/05/24 12:42:21;;;;;;;4.05;0.90;;;;;;;18.77;56.68;100024.06;5980276;28;20034;-67
2022/05/24 12:45:22;;;;;;;2.83;1.10;;;;;;;18.90;58.59;100012.41;5983469;28;20442;-67
2022/05/24 12:48:17;;;;;;;2.40;0.90;;;;;;;18.80;58.80;100020.13;5977930;28;20162;-66
2022/05/24 12:51:12;;;;;;;3.78;1.00;;;;;;;19.17;57.05;100019.22;5978364;28;20039;-66
2022/05/24 12:54:10;;;;;;;2.77;1.10;;;;;;;19.43;56.53;100018.25;5979042;28;20395;-67
2022/05/24 12:57:13;;;;;;;1.38;0.90;;;;;;;19.56;54.06;100008.19;5979018;28;20285;-67
2022/05/24 13:00:19;;;;;;;3.58;0.82;;;;;;;19.79;51.70;100004.00;5978952;28;20031;-67
2022/05/24 13:03:24;;;;;;;4.47;1.00;;;;;;;19.54;53.08;100001.38;5978944;28;20034;-67
2022/05/24 13:06:26;;;;;;;2.40;0.88;;;;;;;19.52;52.63;100003.44;5977925;29;20027;-67
2022/05/24 13:09:29;;;;;;;2.55;0.77;;;;;;;19.32;52.87;100002.78;5978905;28;20036;-67
2022/05/24 13:12:24;;;;;;;2.17;0.80;;;;;;;19.48;54.75;100004.94;5982502;28;20035;-67
2022/05/24 13:15:25;;;;;;;2.13;0.77;;;;;;;19.87;51.84;100012.59;5983133;28;20035;-67
2022/05/24 13:18:25;;;;;;;5.07;0.70;;;;;;;19.75;51.52;100017.09;5981849;28;20046;-67
2022/05/24 13:21:24;;;;;;;3.28;0.80;;;;;;;19.41;50.02;100010.38;5982056;28;20039;-66
2022/05/24 13:24:19;;;;;;;2.53;0.70;;;;;;;19.64;50.59;100017.84;5982006;28;20032;-67
2022/05/24 13:27:14;;;;;;;3.63;1.10;;;;;;;20.08;49.57;100014.84;5982866;28;20043;-66
2022/05/24 13:33:42;;;;;;;1.35;0.80;;;;;;;20.38;48.97;100023.03;5983571;28;20031;-66
2022/05/24 13:37:08;;;;;;;1.92;0.70;;;;;;;20.49;49.01;100013.38;5982826;28;20039;-67
2022/05/24 13:40:03;;;;;;;4.38;1.00;;;;;;;20.56;47.51;100025.69;5977302;28;20110;-66
2022/05/24 13:42:59;;;;;;;3.75;1.00;;;;;;;20.64;48.30;100020.00;5982041;28;20392;-66
2022/05/24 13:46:14;;;;;;;2.50;0.80;;;;;;;20.73;47.09;100020.50;5981718;28;20046;-67
2022/05/24 13:49:09;;;;;;;2.40;1.00;;;;;;;20.79;47.74;100019.56;5982333;28;20043;-67
2022/05/24 13:52:18;;;;;;;4.57;1.17;;;;;;;20.75;46.33;100016.53;5981564;28;20035;-66
2022/05/24 13:55:18;;;;;;;2.10;0.98;;;;;;;21.03;45.66;100015.91;5982197;28;20038;-67
2022/05/24 13:58:16;;;;;;;2.45;0.85;;;;;;;20.98;46.40;100025.75;5982528;28;20166;-67
2022/05/24 14:01:26;;;;;;;2.25;1.10;;;;;;;20.08;48.59;100036.38;5981063;28;20042;-66
2022/05/24 14:04:26;;;;;;;2.13;0.90;;;;;;;19.73;48.74;100032.63;5981803;28;20043;-66
2022/05/24 14:07:21;;;;;;;1.45;0.85;;;;;;;19.42;47.90;100044.31;5988841;28;20039;-65
2022/05/24 14:10:17;;;;;;;3.07;1.23;;;;;;;19.05;49.87;100047.03;5980124;28;20107;-67
2022/05/24 14:13:12;;;;;;;4.30;1.05;;;;;;;18.72;49.78;100050.75;5981711;28;20051;-66
2022/05/24 14:16:08;;;;;;;4.37;1.20;;;;;;;18.36;51.55;100047.78;5980333;28;20071;-66
2022/05/24 14:19:03;;;;;;;4.68;1.25;;;;;;;18.32;52.33;100043.88;5980764;28;20019;-66
2022/05/24 14:21:58;;;;;;;2.87;1.00;;;;;;;19.42;50.28;100054.22;5979634;28;20050;-66
2022/05/24 14:24:54;;;;;;;1.92;0.95;;;;;;;20.61;48.62;100052.78;5983724;28;20027;-66
2022/05/24 14:27:49;;;;;;;3.33;1.10;;;;;;;20.86;47.69;100049.94;5980880;28;20457;-66
2022/05/24 14:30:44;;;;;;;2.90;1.10;;;;;;;20.72;45.66;100060.09;5981065;28;20043;-66
2022/05/24 14:33:40;;;;;;;3.90;1.10;;;;;;;21.66;45.04;100059.28;5981042;28;20031;-67
2022/05/24 14:36:35;;;;;;;3.92;1.23;;;;;;;21.90;43.95;100058.25;5981114;28;20102;-67
2022/05/24 14:39:30;;;;;;;4.13;1.13;;;;;;;22.45;44.21;100068.63;5981305;28;20126;-67
2022/05/24 14:42:31;;;;;;;2.53;1.13;;;;;;;23.01;39.81;100074.13;5992198;28;20473;-67
2022/05/24 14:45:27;;;;;;;5.22;1.20;;;;;;;22.78;40.74;100071.50;5982647;28;20039;-67
2022/05/24 14:48:22;;;;;;;3.00;1.30;;;;;;;22.39;41.53;100073.09;5979949;28;20050;-67